createdAt,value
2018-04-17T00:00:58.793Z,16.50
2018-04-17T00:03:27.533Z,15.50
2018-04-17T00:05:56.678Z,17.90
2018-04-17T00:08:25.342Z,18.13
2018-04-17T00:10:54.309Z,17.23
2018-04-17T00:13:23.083Z,21.23
2018-04-17T00:15:52.242Z,22.73
2018-04-17T00:18:21.183Z,19.43
2018-04-17T00:20:50.275Z,18.40
2018-04-17T00:23:19.017Z,18.90
2018-04-17T00:25:47.781Z,21.23
2018-04-17T00:28:16.473Z,21.40
2018-04-17T00:30:45.585Z,24.93
2018-04-17T00:33:14.607Z,23.20
2018-04-17T00:35:43.348Z,21.73
2018-04-17T00:38:12.368Z,25.60
2018-04-17T00:40:40.939Z,27.60
2018-04-17T00:43:09.833Z,30.43
2018-04-17T00:45:38.518Z,30.90
2018-04-17T00:48:07.158Z,31.90
2018-04-17T00:50:36.299Z,31.27
2018-04-17T00:53:16.794Z,30.30
2018-04-17T00:55:45.433Z,35.33
2018-04-17T00:58:14.150Z,35.33
2018-04-17T01:00:43.335Z,37.90
2018-04-17T01:03:12.385Z,35.90
2018-04-17T01:05:41.079Z,39.27
2018-04-17T01:08:10.209Z,41.77
2018-04-17T01:10:38.894Z,62.30
2018-04-17T01:13:07.901Z,45.87
2018-04-17T01:15:37.073Z,65.70
2018-04-17T01:18:06.181Z,52.60
2018-04-17T01:20:35.178Z,64.70
2018-04-17T01:23:04.370Z,47.03
2018-04-17T01:25:33.386Z,55.30
2018-04-17T01:28:02.083Z,57.50
2018-04-17T01:30:31.244Z,123.93
2018-04-17T01:33:00.185Z,100.83
2018-04-17T01:35:28.953Z,129.07
2018-04-17T01:37:57.622Z,103.53
2018-04-17T01:40:26.311Z,138.50
2018-04-17T01:42:54.851Z,139.27
2018-04-17T01:45:23.770Z,199.17
2018-04-17T01:47:53.274Z,191.37
2018-04-17T01:50:22.327Z,175.27
2018-04-17T01:52:51.465Z,141.70
2018-04-17T01:55:20.415Z,132.27
2018-04-17T01:57:49.160Z,151.97
2018-04-17T02:00:18.345Z,121.60
2018-04-17T02:02:47.369Z,191.63
2018-04-17T02:05:16.536Z,162.70
2018-04-17T02:07:45.631Z,138.63
2018-04-17T02:10:14.724Z,191.37
2018-04-17T02:12:43.408Z,104.30
2018-04-17T02:15:12.300Z,176.63
2018-04-17T02:17:41.115Z,201.83
2018-04-17T02:20:10.288Z,255.60
2018-04-17T02:22:39.793Z,188.60
2018-04-17T02:25:08.742Z,115.97
2018-04-17T02:27:37.558Z,152.33
2018-04-17T02:30:06.578Z,210.03
2018-04-17T02:32:35.240Z,132.23
2018-04-17T02:35:04.333Z,140.83
2018-04-17T02:37:33.055Z,131.67
2018-04-17T02:40:01.823Z,188.73
2018-04-17T02:42:30.889Z,166.93
2018-04-17T02:44:59.553Z,135.33
2018-04-17T02:47:28.702Z,177.03
2018-04-17T02:49:57.633Z,131.57
2018-04-17T02:52:27.709Z,130.57
2018-04-17T02:54:56.832Z,142.80
2018-04-17T02:57:25.807Z,113.60
2018-04-17T02:59:54.523Z,122.97
2018-04-17T03:02:23.264Z,120.70
2018-04-17T03:04:52.259Z,207.03
2018-04-17T03:07:21.424Z,125.23
2018-04-17T03:09:50.918Z,192.27
2018-04-17T03:12:19.909Z,153.13
2018-04-17T03:14:48.648Z,134.37
2018-04-17T03:17:17.418Z,142.73
2018-04-17T03:19:46.263Z,306.02
2018-04-17T03:22:15.205Z,137.40
2018-04-17T03:24:44.304Z,151.37
2018-04-17T03:27:13.308Z,211.87
2018-04-17T03:29:42.426Z,146.77
2018-04-17T03:32:11.092Z,140.37
2018-04-17T03:34:40.273Z,157.63
2018-04-17T03:37:08.962Z,234.73
2018-04-17T03:39:37.643Z,157.03
2018-04-17T03:42:06.742Z,144.80
2018-04-17T03:44:35.679Z,191.00
2018-04-17T03:47:04.365Z,125.00
2018-04-17T03:49:33.133Z,112.57
2018-04-17T03:52:02.711Z,125.43
2018-04-17T03:54:32.069Z,109.80
2018-04-17T03:57:00.840Z,131.30
2018-04-17T03:59:29.999Z,132.87
2018-04-17T04:01:59.089Z,125.53
2018-04-17T04:04:27.736Z,121.33
2018-04-17T04:06:56.750Z,110.20
2018-04-17T04:09:25.473Z,106.43
2018-04-17T04:11:54.583Z,103.13
2018-04-17T04:14:23.748Z,97.55
2018-04-17T04:17:04.720Z,71.37
2018-04-17T04:19:45.286Z,120.97
2018-04-17T04:22:26.009Z,69.50
2018-04-17T04:28:05.342Z,91.20
2018-04-17T04:30:34.012Z,82.70
2018-04-17T04:33:02.775Z,109.00
2018-04-17T04:35:31.799Z,84.07
2018-04-17T04:38:00.888Z,95.43
2018-04-17T04:40:29.384Z,58.57
2018-04-17T04:42:58.076Z,52.83
2018-04-17T04:45:26.986Z,56.17
2018-04-17T04:47:56.126Z,64.73
2018-04-17T04:50:24.813Z,63.33
2018-04-17T04:52:53.903Z,41.43
2018-04-17T04:55:22.927Z,56.77
2018-04-17T04:57:52.095Z,56.13
2018-04-17T05:00:21.189Z,69.83
2018-04-17T05:02:50.176Z,53.33
2018-04-17T05:05:18.972Z,48.90
2018-04-17T05:07:47.960Z,62.63
2018-04-17T05:10:17.075Z,50.57
2018-04-17T05:12:46.093Z,52.80
2018-04-17T05:15:14.941Z,61.43
2018-04-17T05:17:44.036Z,71.77
2018-04-17T05:20:13.134Z,67.17
2018-04-17T05:22:42.512Z,44.97
2018-04-17T05:25:11.230Z,50.47
2018-04-17T05:27:40.013Z,36.73
2018-04-17T05:30:09.012Z,42.30
2018-04-17T05:32:37.705Z,33.00
2018-04-17T05:35:06.797Z,52.80
2018-04-17T05:37:35.487Z,46.07
2018-04-17T05:40:04.700Z,45.83
2018-04-17T05:42:33.697Z,50.17
2018-04-17T05:45:02.859Z,80.13
2018-04-17T05:47:31.805Z,55.43
2018-04-17T05:50:00.973Z,62.17
2018-04-17T05:52:30.554Z,42.47
2018-04-17T05:54:59.607Z,45.17
2018-04-17T05:57:28.504Z,37.87
2018-04-17T05:59:58.250Z,36.10
2018-04-17T06:02:26.721Z,29.60
2018-04-17T06:04:55.241Z,34.77
2018-04-17T06:07:24.240Z,33.70
2018-04-17T06:09:52.864Z,33.10
2018-04-17T06:12:21.386Z,31.07
2018-04-17T06:14:49.938Z,45.37
2018-04-17T06:17:18.450Z,28.93
2018-04-17T06:19:47.092Z,27.90
2018-04-17T06:22:15.732Z,29.07
2018-04-17T06:24:44.341Z,26.73
2018-04-17T06:27:12.827Z,24.47
2018-04-17T06:29:42.118Z,30.00
2018-04-17T06:32:10.605Z,24.10
2018-04-17T06:34:39.243Z,23.57
2018-04-17T06:37:07.729Z,27.03
2018-04-17T06:39:36.657Z,21.97
2018-04-17T06:42:05.223Z,26.43
2018-04-17T06:44:33.708Z,24.23
2018-04-17T06:47:02.196Z,29.67
2018-04-17T06:49:30.830Z,25.73
2018-04-17T06:51:59.318Z,25.80
2018-04-17T06:54:27.964Z,23.10
2018-04-17T06:56:56.472Z,24.63
2018-04-17T06:59:25.142Z,24.63
2018-04-17T07:01:54.957Z,29.93
2018-04-17T07:04:23.477Z,25.77
2018-04-17T07:06:52.025Z,23.90
2018-04-17T07:09:21.709Z,22.00
2018-04-17T07:11:50.525Z,25.67
2018-04-17T07:14:19.005Z,21.80
2018-04-17T07:16:47.533Z,23.83
2018-04-17T07:19:16.095Z,22.57
2018-04-17T07:21:44.575Z,22.93
2018-04-17T07:24:13.059Z,23.20
2018-04-17T07:26:41.540Z,22.53
2018-04-17T07:29:10.171Z,22.40
2018-04-17T07:31:38.782Z,21.93
2018-04-17T07:34:07.269Z,23.33
2018-04-17T07:36:35.892Z,25.27
2018-04-17T07:39:04.494Z,20.13
2018-04-17T07:41:34.204Z,25.87
2018-04-17T07:44:02.679Z,28.50
2018-04-17T07:46:31.153Z,21.07
2018-04-17T07:49:06.500Z,20.77
2018-04-17T07:51:39.551Z,21.00
2018-04-17T07:54:11.054Z,26.57
2018-04-17T07:56:39.761Z,18.23
2018-04-17T07:59:08.391Z,20.20
2018-04-17T08:01:36.998Z,21.10
2018-04-17T08:04:05.468Z,18.20
2018-04-17T08:06:34.902Z,17.47
2018-04-17T08:09:03.539Z,17.93
2018-04-17T08:11:32.078Z,18.33
2018-04-17T08:14:00.567Z,30.53
2018-04-17T08:16:29.211Z,32.47
2018-04-17T08:18:57.721Z,31.50
2018-04-17T08:21:26.289Z,19.57
2018-04-17T08:23:54.827Z,17.67
2018-04-17T08:26:23.331Z,19.67
2018-04-17T08:28:52.702Z,32.63
2018-04-17T08:31:21.513Z,19.33
2018-04-17T08:33:50.206Z,15.60
2018-04-17T08:36:18.691Z,19.30
2018-04-17T08:38:47.325Z,18.57
2018-04-17T08:41:15.949Z,15.87
2018-04-17T08:43:44.433Z,72.17
2018-04-17T08:46:13.939Z,35.27
2018-04-17T08:48:42.574Z,17.10
2018-04-17T08:51:11.198Z,19.53
2018-04-17T08:53:39.677Z,17.50
2018-04-17T08:56:08.155Z,21.83
2018-04-17T08:58:36.646Z,30.33
2018-04-17T09:01:05.180Z,33.20
2018-04-17T09:03:34.101Z,28.43
2018-04-17T09:06:02.681Z,17.87
2018-04-17T09:08:31.169Z,20.83
2018-04-17T09:10:59.672Z,32.60
2018-04-17T09:13:28.311Z,17.87
2018-04-17T09:15:57.704Z,17.70
2018-04-17T09:18:26.205Z,22.07
2018-04-17T09:20:54.818Z,14.97
2018-04-17T09:23:23.360Z,18.77
2018-04-17T09:25:52.560Z,15.50
2018-04-17T09:28:21.252Z,15.80
2018-04-17T09:30:49.782Z,15.90
2018-04-17T09:33:18.298Z,16.10
2018-04-17T09:35:46.955Z,16.30
2018-04-17T09:38:15.595Z,19.30
2018-04-17T09:40:44.222Z,17.07
2018-04-17T09:43:12.957Z,19.30
2018-04-17T09:45:41.493Z,16.13
2018-04-17T09:48:09.982Z,13.63
2018-04-17T09:50:38.488Z,14.50
2018-04-17T09:53:06.991Z,15.43
2018-04-17T09:55:35.579Z,26.97
2018-04-17T09:58:04.108Z,15.13
2018-04-17T10:00:38.258Z,13.23
2018-04-17T10:03:07.536Z,11.00
2018-04-17T10:05:36.033Z,14.03
2018-04-17T10:08:05.313Z,18.47
2018-04-17T10:10:35.024Z,13.13
2018-04-17T10:13:03.506Z,13.43
2018-04-17T10:15:32.186Z,11.63
2018-04-17T10:18:00.666Z,9.70
2018-04-17T10:20:29.164Z,10.80
2018-04-17T10:22:58.445Z,34.13
2018-04-17T10:25:27.048Z,11.77
2018-04-17T10:27:55.515Z,11.27
2018-04-17T10:30:24.213Z,11.23
2018-04-17T10:32:52.744Z,14.80
2018-04-17T10:35:21.240Z,15.00
2018-04-17T10:37:49.775Z,11.47
2018-04-17T10:40:19.065Z,13.27
2018-04-17T10:42:48.326Z,12.03
2018-04-17T10:45:17.764Z,12.37
2018-04-17T10:47:47.422Z,10.53
2018-04-17T10:50:15.923Z,11.10
2018-04-17T10:52:44.569Z,19.73
2018-04-17T10:55:13.113Z,11.23
2018-04-17T10:57:42.243Z,11.40
2018-04-17T11:00:11.746Z,19.93
2018-04-17T11:02:40.231Z,10.70
2018-04-17T11:05:09.119Z,12.70
2018-04-17T11:07:37.727Z,12.23
2018-04-17T11:10:06.283Z,13.20
2018-04-17T11:12:34.940Z,13.00
2018-04-17T11:15:03.454Z,11.57
2018-04-17T11:17:31.998Z,14.17
2018-04-17T11:20:00.573Z,11.93
2018-04-17T11:22:29.204Z,15.15
2018-04-17T11:24:57.984Z,10.67
2018-04-17T11:27:26.733Z,9.20
2018-04-17T11:29:55.236Z,11.23
2018-04-17T11:32:24.521Z,14.37
2018-04-17T11:34:53.345Z,8.23
2018-04-17T11:37:22.039Z,10.60
2018-04-17T11:39:51.124Z,10.77
2018-04-17T11:42:20.148Z,19.47
2018-04-17T11:44:48.811Z,13.10
2018-04-17T11:47:17.480Z,12.23
2018-04-17T11:49:46.272Z,7.30
2018-04-17T11:52:14.749Z,11.80
2018-04-17T11:54:43.463Z,15.17
2018-04-17T11:57:12.332Z,11.17
2018-04-17T11:59:41.435Z,7.80
2018-04-17T12:02:10.431Z,7.23
2018-04-17T12:04:39.214Z,13.23
2018-04-17T12:07:08.305Z,9.00
2018-04-17T12:09:37.400Z,7.57
2018-04-17T12:12:05.882Z,13.33
2018-04-17T12:14:34.481Z,7.30
2018-04-17T12:17:03.082Z,6.87
2018-04-17T12:19:31.582Z,8.07
2018-04-17T12:22:00.424Z,16.07
2018-04-17T12:24:28.940Z,6.93
2018-04-17T12:26:57.448Z,7.30
2018-04-17T12:29:25.921Z,8.83
2018-04-17T12:31:54.493Z,8.27
2018-04-17T12:34:23.041Z,18.70
2018-04-17T12:36:51.525Z,7.57
2018-04-17T12:39:20.045Z,15.70
2018-04-17T12:41:48.582Z,6.70
2018-04-17T12:44:17.083Z,11.67
2018-04-17T12:46:46.785Z,9.80
2018-04-17T12:49:15.564Z,8.80
2018-04-17T12:51:44.648Z,6.93
2018-04-17T12:54:13.299Z,5.30
2018-04-17T12:56:41.781Z,6.07
2018-04-17T12:59:10.252Z,6.37
2018-04-17T13:01:39.390Z,11.40
2018-04-17T13:04:08.428Z,7.10
2018-04-17T13:06:37.099Z,9.27
2018-04-17T13:09:07.086Z,6.47
2018-04-17T13:11:36.105Z,10.53
2018-04-17T13:14:05.280Z,7.67
2018-04-17T13:16:34.364Z,7.60
2018-04-17T13:19:03.055Z,9.20
2018-04-17T13:21:32.000Z,6.80
2018-04-17T13:24:00.838Z,5.80
2018-04-17T13:26:29.573Z,6.47
2018-04-17T13:28:59.030Z,12.03
2018-04-17T13:31:27.717Z,10.33
2018-04-17T13:33:56.332Z,8.93
2018-04-17T13:36:25.721Z,10.20
2018-04-17T13:38:54.523Z,19.47
2018-04-17T13:41:23.690Z,6.10
2018-04-17T13:43:52.753Z,8.60
2018-04-17T13:46:21.890Z,8.40
2018-04-17T13:48:50.394Z,5.23
2018-04-17T13:51:18.892Z,4.53
2018-04-17T13:53:47.522Z,6.37
2018-04-17T13:56:16.212Z,5.50
2018-04-17T13:58:45.204Z,4.10
2018-04-17T14:01:13.898Z,3.80
2018-04-17T14:03:42.613Z,11.07
2018-04-17T14:06:12.180Z,5.53
2018-04-17T14:08:40.676Z,7.73
2018-04-17T14:11:09.184Z,5.77
2018-04-17T14:13:38.242Z,8.20
2018-04-17T14:16:07.247Z,6.40
2018-04-17T14:18:36.021Z,4.63
2018-04-17T14:21:05.031Z,5.60
2018-04-17T14:23:33.544Z,5.70
2018-04-17T14:26:02.051Z,13.70
2018-04-17T14:28:31.177Z,6.87
2018-04-17T14:30:59.686Z,6.57
2018-04-17T14:33:28.301Z,4.10
2018-04-17T14:35:57.112Z,6.23
2018-04-17T14:38:25.716Z,9.73
2018-04-17T14:40:54.522Z,3.80
2018-04-17T14:43:23.252Z,6.53
2018-04-17T14:45:51.780Z,3.90
2018-04-17T14:48:20.263Z,15.70
2018-04-17T14:50:49.174Z,4.57
2018-04-17T14:53:17.691Z,6.10
2018-04-17T14:55:46.180Z,5.50
2018-04-17T14:58:14.993Z,9.93
2018-04-17T15:00:43.500Z,7.20
2018-04-17T15:03:12.695Z,5.87
2018-04-17T15:05:41.459Z,5.97
2018-04-17T15:08:09.969Z,7.53
2018-04-17T15:10:38.469Z,6.33
2018-04-17T15:13:06.985Z,8.30
2018-04-17T15:15:35.633Z,10.67
2018-04-17T15:18:04.108Z,11.00
2018-04-17T15:20:32.666Z,10.17
2018-04-17T15:23:01.218Z,10.63
2018-04-17T15:25:30.128Z,14.37
2018-04-17T15:27:59.223Z,16.10
2018-04-17T15:30:28.284Z,7.40
2018-04-17T15:32:57.327Z,9.27
2018-04-17T15:35:26.416Z,7.03
2018-04-17T15:37:55.089Z,9.40
2018-04-17T15:40:23.799Z,7.57
2018-04-17T15:42:52.567Z,8.40
2018-04-17T15:45:21.611Z,9.13
2018-04-17T15:47:50.348Z,9.70
2018-04-17T15:50:19.033Z,10.60
2018-04-17T15:52:47.517Z,15.87
2018-04-17T15:55:16.815Z,10.77
2018-04-17T15:57:45.305Z,10.17
2018-04-17T16:00:13.895Z,8.77
2018-04-17T16:02:43.293Z,9.63
2018-04-17T16:05:11.967Z,10.37
2018-04-17T16:07:40.687Z,11.80
2018-04-17T16:10:09.750Z,11.83
2018-04-17T16:12:38.362Z,10.50
2018-04-17T16:15:06.876Z,11.47
2018-04-17T16:17:35.378Z,10.27
2018-04-17T16:20:03.987Z,12.83
2018-04-17T16:22:32.551Z,11.53
2018-04-17T16:25:01.194Z,14.30
2018-04-17T16:27:30.547Z,10.03
2018-04-17T16:29:59.073Z,9.93
2018-04-17T16:32:31.360Z,10.87
2018-04-17T16:35:03.176Z,12.13
2018-04-17T16:37:33.966Z,10.83
2018-04-17T16:40:02.910Z,10.77
2018-04-17T16:42:32.081Z,10.33
2018-04-17T16:45:01.182Z,12.00
2018-04-17T16:47:30.260Z,12.03
2018-04-17T16:49:58.930Z,10.53
2018-04-17T16:52:28.053Z,11.93
2018-04-17T16:54:57.158Z,12.17
2018-04-17T16:57:26.270Z,13.00
2018-04-17T16:59:55.148Z,15.57
2018-04-17T17:02:24.471Z,14.70
2018-04-17T17:04:53.535Z,14.07
2018-04-17T17:07:22.496Z,13.87
2018-04-17T17:09:51.213Z,14.80
2018-04-17T17:12:20.307Z,15.10
2018-04-17T17:14:48.994Z,15.53
2018-04-17T17:17:18.190Z,13.43
2018-04-17T17:19:47.179Z,14.80
2018-04-17T17:22:16.148Z,14.43
2018-04-17T17:24:45.037Z,14.47
2018-04-17T17:27:13.706Z,12.60
2018-04-17T17:29:42.847Z,14.97
2018-04-17T17:32:11.533Z,13.67
2018-04-17T17:34:40.631Z,14.40
2018-04-17T17:37:09.621Z,14.33
2018-04-17T17:39:39.236Z,15.70
2018-04-17T17:42:07.915Z,15.57
2018-04-17T17:44:36.925Z,15.77
2018-04-17T17:47:06.441Z,14.27
2018-04-17T17:49:35.607Z,31.17
2018-04-17T17:52:04.625Z,15.20
2018-04-17T17:54:33.804Z,15.47
2018-04-17T17:57:04.660Z,14.47
2018-04-17T17:59:34.827Z,16.47
2018-04-17T18:02:05.189Z,16.95
2018-04-17T18:04:34.188Z,15.33
2018-04-17T18:07:02.924Z,15.70
2018-04-17T18:09:32.073Z,16.70
2018-04-17T18:12:01.136Z,16.53
2018-04-17T18:14:30.175Z,17.53
2018-04-17T18:16:59.347Z,17.03
2018-04-17T18:19:27.851Z,18.83
2018-04-17T18:21:56.733Z,15.93
2018-04-17T18:24:25.288Z,21.90
2018-04-17T18:26:54.602Z,18.47
2018-04-17T18:29:23.802Z,16.47
2018-04-17T18:31:52.287Z,20.27
2018-04-17T18:34:20.769Z,22.40
2018-04-17T18:36:49.468Z,15.47
2018-04-17T18:39:17.984Z,16.07
2018-04-17T18:41:46.542Z,14.73
2018-04-17T18:44:15.083Z,18.00
2018-04-17T18:46:43.731Z,18.23
2018-04-17T18:49:12.359Z,16.20
2018-04-17T18:51:42.104Z,17.50
2018-04-17T18:54:10.736Z,18.43
2018-04-17T18:56:40.004Z,15.90
2018-04-17T18:59:08.488Z,15.23
2018-04-17T19:01:36.960Z,15.90
2018-04-17T19:04:05.492Z,16.93
2018-04-17T19:06:34.116Z,16.80
2018-04-17T19:09:02.978Z,17.20
2018-04-17T19:11:31.936Z,17.03
2018-04-17T19:14:01.078Z,16.40
2018-04-17T19:16:29.770Z,14.97
2018-04-17T19:18:58.538Z,16.43
2018-04-17T19:21:27.479Z,17.53
2018-04-17T19:23:56.320Z,16.70
2018-04-17T19:26:25.344Z,19.10
2018-04-17T19:28:54.514Z,24.63
2018-04-17T19:31:23.075Z,17.33
2018-04-17T19:33:53.522Z,16.40
2018-04-17T19:36:22.460Z,18.00
2018-04-17T19:38:51.301Z,17.37
2018-04-17T19:41:20.373Z,16.40
2018-04-17T19:43:49.336Z,17.53
2018-04-17T19:46:18.027Z,17.90
2018-04-17T19:48:46.669Z,18.07
2018-04-17T19:51:15.563Z,18.30
2018-04-17T19:53:44.054Z,19.77
2018-04-17T19:56:12.843Z,22.10
2018-04-17T19:58:42.383Z,21.73
2018-04-17T20:01:11.520Z,19.43
2018-04-17T20:03:40.541Z,21.37
2018-04-17T20:06:09.262Z,22.97
2018-04-17T20:08:37.978Z,22.90
2018-04-17T20:11:06.968Z,25.40
2018-04-17T20:13:35.768Z,25.73
2018-04-17T20:16:04.865Z,23.23
2018-04-17T20:18:33.869Z,24.27
2018-04-17T20:21:02.438Z,28.07
2018-04-17T20:23:31.327Z,25.73
2018-04-17T20:26:00.271Z,27.97
2018-04-17T20:28:29.836Z,29.07
2018-04-17T20:30:58.413Z,30.57
2018-04-17T20:33:27.197Z,29.33
2018-04-17T20:35:55.860Z,29.20
2018-04-17T20:38:25.404Z,30.20
2018-04-17T20:40:54.176Z,32.90
2018-04-17T20:43:23.273Z,32.93
2018-04-17T20:45:52.366Z,30.07
2018-04-17T20:48:21.349Z,35.03
2018-04-17T20:50:50.562Z,33.07
2018-04-17T20:53:19.247Z,36.37
2018-04-17T20:55:48.297Z,33.20
2018-04-17T20:58:17.438Z,33.60
2018-04-17T21:00:46.536Z,35.57
2018-04-17T21:03:15.626Z,36.97
2018-04-17T21:05:44.462Z,34.93
2018-04-17T21:08:13.408Z,35.63
2018-04-17T21:10:42.109Z,39.83
2018-04-17T21:13:11.091Z,34.07
2018-04-17T21:15:40.206Z,35.50
2018-04-17T21:18:09.379Z,36.07
2018-04-17T21:20:38.365Z,33.50
2018-04-17T21:23:07.590Z,37.33
2018-04-17T21:25:36.573Z,40.20
2018-04-17T21:28:06.065Z,32.83
2018-04-17T21:30:35.292Z,35.23
2018-04-17T21:33:05.180Z,31.93
2018-04-17T21:35:34.270Z,38.00
2018-04-17T21:38:03.305Z,33.13
2018-04-17T21:40:32.325Z,37.27
2018-04-17T21:43:01.141Z,35.80
2018-04-17T21:45:31.519Z,34.10
2018-04-17T21:48:00.560Z,31.67
2018-04-17T21:50:29.540Z,31.83
2018-04-17T21:53:00.813Z,30.10
2018-04-17T21:55:30.250Z,31.40
2018-04-17T21:57:59.412Z,29.00
2018-04-17T22:00:28.507Z,31.30
2018-04-17T22:02:57.037Z,27.20
2018-04-17T22:05:25.850Z,25.63
2018-04-17T22:07:54.976Z,28.93
2018-04-17T22:10:23.828Z,27.80
2018-04-17T22:12:53.069Z,26.60
2018-04-17T22:15:22.258Z,27.60
2018-04-17T22:17:51.561Z,27.50
2018-04-17T22:20:20.190Z,24.83
2018-04-17T22:22:49.140Z,23.43
2018-04-17T22:25:17.710Z,29.07
2018-04-17T22:27:47.327Z,23.77
2018-04-17T22:30:16.427Z,24.17
2018-04-17T22:32:45.520Z,25.00
2018-04-17T22:35:14.404Z,26.40
2018-04-17T22:37:43.221Z,25.73
2018-04-17T22:40:12.391Z,22.37
2018-04-17T22:42:41.369Z,24.17
2018-04-17T22:45:10.091Z,22.77
2018-04-17T22:47:39.271Z,25.77
2018-04-17T22:50:08.195Z,23.20
2018-04-17T22:52:36.961Z,23.20
2018-04-17T22:55:06.030Z,18.97
2018-04-17T22:57:35.247Z,21.93
2018-04-17T23:00:04.188Z,20.10
2018-04-17T23:02:32.931Z,19.40
2018-04-17T23:05:01.711Z,23.03
2018-04-17T23:07:31.090Z,20.23
2018-04-17T23:09:59.826Z,18.43
2018-04-17T23:12:28.992Z,19.47
2018-04-17T23:14:58.088Z,18.90
2018-04-17T23:17:27.184Z,18.00
2018-04-17T23:19:56.279Z,19.07
2018-04-17T23:22:25.788Z,18.30
2018-04-17T23:24:54.731Z,19.20
2018-04-17T23:27:23.449Z,16.10
2018-04-17T23:29:51.991Z,18.77
2018-04-17T23:32:20.858Z,17.87
2018-04-17T23:34:49.547Z,16.17
2018-04-17T23:37:18.688Z,16.10
2018-04-17T23:39:47.382Z,14.57
2018-04-17T23:42:16.347Z,18.37
2018-04-17T23:44:45.613Z,18.60
2018-04-17T23:47:14.982Z,15.73
2018-04-17T23:49:43.790Z,16.97
2018-04-17T23:52:12.339Z,17.07
2018-04-17T23:54:41.160Z,17.27
2018-04-17T23:57:09.642Z,19.57
2018-04-17T23:59:38.535Z,14.60
